Time;durP1;ratioP1;P1;durP2;ratioP2;P2;SDS_P1;SDS_P2;PMS_P1;PMS_P2;Temp;Humidity;BMP_temperature;BMP_pressure;BME280_temperature;BME280_humidity;BME280_pressure;Samples;Min_cycle;Max_cycle;Signal;HPM_P1;HPM_P2
2023/08/18 00:01:07;;;;;;;22.15;15.18;;;;;;;;;;4996960;28;20060;-64
2023/08/18 00:03:34;;;;;;;21.77;14.57;;;;;;;;;;4995658;28;20160;-65
2023/08/18 00:06:00;;;;;;;21.33;13.98;;;;;;;;;;4996335;28;20042;-64
2023/08/18 00:08:27;;;;;;;24.02;14.65;;;;;;;;;;4997837;28;20056;-66
2023/08/18 00:10:53;;;;;;;24.17;14.82;;;;;;;;;;4998763;28;20070;-64
2023/08/18 00:13:20;;;;;;;24.02;14.98;;;;;;;;;;4998126;28;20042;-65
2023/08/18 00:15:47;;;;;;;26.50;15.90;;;;;;;;;;4996223;28;20450;-65
2023/08/18 00:18:13;;;;;;;24.20;15.77;;;;;;;;;;4995837;28;20048;-65
2023/08/18 00:20:40;;;;;;;24.38;15.73;;;;;;;;;;4994485;28;20107;-67
2023/08/18 00:23:06;;;;;;;26.00;16.58;;;;;;;;;;4995625;28;20046;-64
2023/08/18 00:25:33;;;;;;;26.02;17.55;;;;;;;;;;4993480;28;20073;-64
2023/08/18 00:28:00;;;;;;;27.15;17.67;;;;;;;;;;4993733;28;20046;-65
2023/08/18 00:30:26;;;;;;;28.17;17.83;;;;;;;;;;4999162;28;20042;-65
2023/08/18 00:32:53;;;;;;;30.33;19.30;;;;;;;;;;5005019;28;20045;-65
2023/08/18 00:35:19;;;;;;;30.50;19.10;;;;;;;;;;4995033;28;20068;-65
2023/08/18 00:37:48;;;;;;;30.30;20.42;;;;;;;;;;5010185;28;20038;-64
2023/08/18 00:40:15;;;;;;;31.48;19.80;;;;;;;;;;5011824;28;20445;-66
2023/08/18 00:42:41;;;;;;;33.78;21.50;;;;;;;;;;4994877;28;20096;-64
2023/08/18 00:45:08;;;;;;;31.55;21.38;;;;;;;;;;4996866;28;20137;-64
2023/08/18 00:47:54;;;;;;;33.15;21.63;;;;;;;;;;5015659;28;20133;-66
2023/08/18 00:50:21;;;;;;;36.28;22.42;;;;;;;;;;5000575;28;20084;-65
2023/08/18 00:52:53;;;;;;;36.42;22.60;;;;;;;;;;5016964;28;20075;-65
2023/08/18 00:55:20;;;;;;;33.33;23.17;;;;;;;;;;5016592;28;20045;-65
2023/08/18 00:57:46;;;;;;;37.72;25.40;;;;;;;;;;5012110;28;20065;-65
2023/08/18 01:00:13;;;;;;;39.67;27.45;;;;;;;;;;5013182;28;20104;-64
2023/08/18 01:02:40;;;;;;;45.15;29.20;;;;;;;;;;5012453;28;20042;-65
2023/08/18 01:05:07;;;;;;;40.17;27.65;;;;;;;;;;5012235;28;20045;-64
2023/08/18 01:07:33;;;;;;;42.08;28.13;;;;;;;;;;5009934;28;20668;-65
2023/08/18 01:10:00;;;;;;;43.47;28.17;;;;;;;;;;5011587;28;20046;-64
2023/08/18 01:12:33;;;;;;;46.63;28.60;;;;;;;;;;5008541;28;20049;-64
2023/08/18 01:15:00;;;;;;;43.72;29.55;;;;;;;;;;5010912;28;20057;-64
2023/08/18 01:17:28;;;;;;;46.25;30.83;;;;;;;;;;5009679;28;20038;-64
2023/08/18 01:19:55;;;;;;;50.15;31.15;;;;;;;;;;4995924;28;20069;-65
2023/08/18 01:22:23;;;;;;;46.28;30.77;;;;;;;;;;4994257;28;20034;-64
2023/08/18 01:24:50;;;;;;;45.85;30.40;;;;;;;;;;4994301;28;20033;-64
2023/08/18 01:27:16;;;;;;;42.60;29.15;;;;;;;;;;4993793;28;20136;-63
2023/08/18 01:29:43;;;;;;;43.85;30.05;;;;;;;;;;4992913;28;20120;-63
2023/08/18 01:32:11;;;;;;;47.97;31.95;;;;;;;;;;4994781;28;20608;-65
2023/08/18 01:34:40;;;;;;;48.50;33.13;;;;;;;;;;4992646;28;20053;-66
2023/08/18 01:37:07;;;;;;;49.47;33.22;;;;;;;;;;4994115;28;20038;-65
2023/08/18 01:39:34;;;;;;;52.95;35.38;;;;;;;;;;4993522;28;20041;-65
2023/08/18 01:42:01;;;;;;;58.20;38.45;;;;;;;;;;4986023;28;21794;-65
2023/08/18 01:44:28;;;;;;;59.97;40.40;;;;;;;;;;4993853;28;20129;-64
2023/08/18 01:46:54;;;;;;;60.80;41.50;;;;;;;;;;4993587;28;20041;-64
2023/08/18 01:49:21;;;;;;;62.95;41.88;;;;;;;;;;4992900;28;20131;-66
2023/08/18 01:51:48;;;;;;;65.43;43.58;;;;;;;;;;4993354;28;20037;-65
2023/08/18 01:54:14;;;;;;;71.43;42.42;;;;;;;;;;4994144;28;20096;-65
2023/08/18 01:56:41;;;;;;;64.55;43.60;;;;;;;;;;4991547;28;20092;-65
2023/08/18 01:59:07;;;;;;;67.30;44.95;;;;;;;;;;4994383;28;20169;-65
2023/08/18 02:01:34;;;;;;;66.53;45.08;;;;;;;;;;4993944;28;20038;-64
2023/08/18 02:04:01;;;;;;;66.32;44.30;;;;;;;;;;4995153;28;20117;-64
2023/08/18 02:06:27;;;;;;;69.55;45.97;;;;;;;;;;4993582;28;20049;-64
2023/08/18 02:08:54;;;;;;;77.38;47.63;;;;;;;;;;5010235;28;20403;-64
2023/08/18 02:11:20;;;;;;;69.68;46.25;;;;;;;;;;4994603;28;20038;-64
2023/08/18 02:13:47;;;;;;;70.53;45.15;;;;;;;;;;4995492;28;20100;-65
2023/08/18 02:16:14;;;;;;;78.15;47.90;;;;;;;;;;5002181;28;20034;-71
2023/08/18 02:18:40;;;;;;;71.57;46.97;;;;;;;;;;4998408;28;20494;-66
2023/08/18 02:21:07;;;;;;;72.25;49.40;;;;;;;;;;4994349;28;20042;-65
2023/08/18 02:23:34;;;;;;;79.35;50.15;;;;;;;;;;4993054;28;20487;-66
2023/08/18 02:26:04;;;;;;;80.90;50.60;;;;;;;;;;5007505;28;20111;-64
2023/08/18 02:28:31;;;;;;;74.18;48.65;;;;;;;;;;4992558;28;20053;-65
2023/08/18 02:31:03;;;;;;;77.82;50.50;;;;;;;;;;4993245;28;20041;-64
2023/08/18 02:33:30;;;;;;;81.65;50.95;;;;;;;;;;4994399;28;20551;-64
2023/08/18 02:35:59;;;;;;;77.55;51.95;;;;;;;;;;4994303;28;20519;-65
2023/08/18 02:38:28;;;;;;;78.32;50.92;;;;;;;;;;5009708;28;20041;-64
2023/08/18 02:40:55;;;;;;;76.15;50.30;;;;;;;;;;4994039;28;20052;-66
2023/08/18 02:43:22;;;;;;;74.95;49.55;;;;;;;;;;4995272;28;20042;-66
2023/08/18 02:45:49;;;;;;;77.75;50.85;;;;;;;;;;4993414;28;20042;-67
2023/08/18 02:48:16;;;;;;;83.38;51.80;;;;;;;;;;4993944;28;20101;-66
2023/08/18 02:50:43;;;;;;;80.28;51.50;;;;;;;;;;4992115;28;20045;-65
2023/08/18 02:53:09;;;;;;;78.03;51.08;;;;;;;;;;4993674;28;20044;-65
2023/08/18 02:55:36;;;;;;;80.68;51.55;;;;;;;;;;4992859;28;20466;-65
2023/08/18 02:58:03;;;;;;;82.30;51.55;;;;;;;;;;4993694;28;20045;-65
2023/08/18 03:00:31;;;;;;;85.63;52.50;;;;;;;;;;4992833;28;20045;-65
2023/08/18 03:02:59;;;;;;;81.50;51.00;;;;;;;;;;4995176;28;20038;-65
2023/08/18 03:05:25;;;;;;;78.30;50.70;;;;;;;;;;4995949;28;20045;-66
2023/08/18 03:07:52;;;;;;;86.78;54.42;;;;;;;;;;4997049;28;20137;-65
2023/08/18 03:10:18;;;;;;;89.82;53.22;;;;;;;;;;4996737;28;20379;-65
2023/08/18 03:12:45;;;;;;;86.88;51.83;;;;;;;;;;4995213;28;20062;-64
2023/08/18 03:15:12;;;;;;;81.95;52.63;;;;;;;;;;4996671;28;20046;-65
2023/08/18 03:17:38;;;;;;;79.82;50.63;;;;;;;;;;4995950;28;20042;-63
2023/08/18 03:20:06;;;;;;;81.80;51.58;;;;;;;;;;4997349;28;20050;-64
2023/08/18 03:22:34;;;;;;;90.95;52.92;;;;;;;;;;4994376;28;20037;-64
2023/08/18 03:25:01;;;;;;;81.88;51.72;;;;;;;;;;4994380;28;20418;-62
2023/08/18 03:27:27;;;;;;;82.18;53.22;;;;;;;;;;4994853;28;20065;-61
2023/08/18 03:29:55;;;;;;;80.00;50.97;;;;;;;;;;5011705;28;21870;-61
2023/08/18 03:32:25;;;;;;;85.32;52.58;;;;;;;;;;4996703;28;20121;-63
2023/08/18 03:34:55;;;;;;;83.90;51.58;;;;;;;;;;4995721;28;20124;-62
2023/08/18 03:37:22;;;;;;;85.82;53.00;;;;;;;;;;4994264;28;20039;-64
2023/08/18 03:39:48;;;;;;;87.90;54.15;;;;;;;;;;4995492;28;20038;-64
2023/08/18 03:42:15;;;;;;;85.50;52.47;;;;;;;;;;4995827;28;20113;-63
2023/08/18 03:44:42;;;;;;;78.85;52.35;;;;;;;;;;4994101;28;20107;-65
2023/08/18 03:47:08;;;;;;;83.07;53.40;;;;;;;;;;4986412;28;20050;-65
2023/08/18 03:49:35;;;;;;;83.22;53.67;;;;;;;;;;4987674;28;20081;-63
2023/08/18 03:52:01;;;;;;;88.55;56.10;;;;;;;;;;4990221;28;20038;-63
2023/08/18 03:54:28;;;;;;;80.35;52.78;;;;;;;;;;4989983;28;20036;-63
2023/08/18 03:56:55;;;;;;;80.65;52.97;;;;;;;;;;4990391;28;20037;-64
2023/08/18 03:59:21;;;;;;;85.70;53.83;;;;;;;;;;4990794;28;20431;-64
2023/08/18 04:01:48;;;;;;;99.72;54.70;;;;;;;;;;4989824;28;20036;-65
2023/08/18 04:04:15;;;;;;;81.53;51.88;;;;;;;;;;4989755;28;20052;-65
2023/08/18 04:06:41;;;;;;;84.38;53.05;;;;;;;;;;4988529;28;20104;-66
2023/08/18 04:09:18;;;;;;;87.65;53.08;;;;;;;;;;4989985;28;20066;-65
2023/08/18 04:11:44;;;;;;;81.90;53.35;;;;;;;;;;4988992;28;20037;-65
2023/08/18 04:14:12;;;;;;;83.38;52.88;;;;;;;;;;5004597;28;20038;-65
2023/08/18 04:16:39;;;;;;;82.60;53.42;;;;;;;;;;4987840;28;20041;-64
2023/08/18 04:19:05;;;;;;;85.20;53.92;;;;;;;;;;4988534;28;20137;-65
2023/08/18 04:21:32;;;;;;;82.90;53.20;;;;;;;;;;4987737;28;20049;-66
2023/08/18 04:23:59;;;;;;;85.70;53.08;;;;;;;;;;4988579;28;20044;-65
2023/08/18 04:26:28;;;;;;;86.00;53.30;;;;;;;;;;4987535;28;20038;-65
2023/08/18 04:28:54;;;;;;;79.95;52.22;;;;;;;;;;5004900;28;20057;-64
2023/08/18 04:31:21;;;;;;;79.97;51.97;;;;;;;;;;4990896;28;20030;-64
2023/08/18 04:33:48;;;;;;;78.32;51.55;;;;;;;;;;5003651;28;20738;-66
2023/08/18 04:36:15;;;;;;;83.68;51.90;;;;;;;;;;4989070;28;20064;-65
2023/08/18 04:38:42;;;;;;;80.75;51.50;;;;;;;;;;4988768;28;20042;-69
2023/08/18 04:41:09;;;;;;;82.30;51.78;;;;;;;;;;4988748;28;20073;-63
2023/08/18 04:43:36;;;;;;;84.80;52.10;;;;;;;;;;4988730;28;20113;-65
2023/08/18 04:46:03;;;;;;;83.72;52.53;;;;;;;;;;5003434;28;20038;-66
2023/08/18 04:48:29;;;;;;;85.13;52.28;;;;;;;;;;4989192;28;20490;-65
2023/08/18 04:50:56;;;;;;;78.78;51.42;;;;;;;;;;4988484;28;20190;-65
2023/08/18 04:53:22;;;;;;;84.55;50.28;;;;;;;;;;4988275;28;20092;-66
2023/08/18 04:55:49;;;;;;;81.75;50.42;;;;;;;;;;4988621;28;20052;-66
2023/08/18 04:58:17;;;;;;;86.28;51.72;;;;;;;;;;4987724;28;20041;-66
2023/08/18 05:00:44;;;;;;;81.13;51.85;;;;;;;;;;4988121;28;20042;-67
2023/08/18 05:03:11;;;;;;;80.97;50.92;;;;;;;;;;4988707;28;20517;-65
2023/08/18 05:05:59;;;;;;;75.47;49.03;;;;;;;;;;5002139;28;20042;-66
2023/08/18 05:08:28;;;;;;;80.05;51.88;;;;;;;;;;4988323;28;20503;-65
2023/08/18 05:10:58;;;;;;;81.10;51.20;;;;;;;;;;4988953;28;20041;-64
2023/08/18 05:13:25;;;;;;;79.20;49.97;;;;;;;;;;4987369;28;20042;-66
2023/08/18 05:15:52;;;;;;;77.78;49.72;;;;;;;;;;4987722;28;20779;-64
2023/08/18 05:18:21;;;;;;;80.97;51.22;;;;;;;;;;4989637;28;20506;-65
2023/08/18 05:20:48;;;;;;;77.28;50.08;;;;;;;;;;4988560;28;20046;-64
2023/08/18 05:23:16;;;;;;;77.18;48.00;;;;;;;;;;4989787;28;20053;-66
2023/08/18 05:25:45;;;;;;;78.13;49.83;;;;;;;;;;4987180;28;20076;-66
2023/08/18 05:28:13;;;;;;;80.30;50.33;;;;;;;;;;4989079;28;20176;-64
2023/08/18 05:30:39;;;;;;;81.78;49.92;;;;;;;;;;4987985;28;20052;-64
2023/08/18 05:33:06;;;;;;;76.45;49.17;;;;;;;;;;4989488;28;20124;-64
2023/08/18 05:35:33;;;;;;;77.30;49.08;;;;;;;;;;4986716;28;20107;-64
2023/08/18 05:37:59;;;;;;;75.97;48.78;;;;;;;;;;4989003;28;20116;-65
2023/08/18 05:40:26;;;;;;;76.85;49.92;;;;;;;;;;4988061;28;20046;-64
2023/08/18 05:42:52;;;;;;;85.10;50.40;;;;;;;;;;4989096;28;20049;-64
2023/08/18 05:45:19;;;;;;;76.68;49.22;;;;;;;;;;5001350;28;21594;-64
2023/08/18 05:47:46;;;;;;;80.35;49.42;;;;;;;;;;4987650;28;20121;-64
2023/08/18 05:50:12;;;;;;;82.28;49.90;;;;;;;;;;4988399;28;20514;-65
2023/08/18 05:52:39;;;;;;;73.97;47.20;;;;;;;;;;5001347;28;20042;-64
2023/08/18 05:55:06;;;;;;;85.97;50.65;;;;;;;;;;4987751;28;20042;-64
2023/08/18 05:57:32;;;;;;;87.15;50.45;;;;;;;;;;5003938;28;20841;-65
2023/08/18 05:59:59;;;;;;;77.63;49.03;;;;;;;;;;4991951;28;20360;-64
2023/08/18 06:02:25;;;;;;;82.53;49.22;;;;;;;;;;4989194;28;20104;-63
2023/08/18 06:04:52;;;;;;;78.18;49.25;;;;;;;;;;5003341;28;20046;-63
2023/08/18 06:07:19;;;;;;;77.07;50.00;;;;;;;;;;4986999;28;20112;-66
2023/08/18 06:09:45;;;;;;;76.63;49.33;;;;;;;;;;5003468;28;20798;-64
2023/08/18 06:12:12;;;;;;;79.43;49.55;;;;;;;;;;4988118;28;20109;-63
2023/08/18 06:14:39;;;;;;;83.80;51.03;;;;;;;;;;4987763;28;20038;-64
2023/08/18 06:17:05;;;;;;;84.05;50.75;;;;;;;;;;4989237;28;20123;-64
2023/08/18 06:19:33;;;;;;;78.65;49.58;;;;;;;;;;5000018;28;20132;-64
2023/08/18 06:21:59;;;;;;;81.95;50.47;;;;;;;;;;5012759;28;20038;-64
2023/08/18 06:24:26;;;;;;;79.80;49.00;;;;;;;;;;5027886;28;20050;-64
2023/08/18 06:26:53;;;;;;;81.32;50.33;;;;;;;;;;5012325;28;20100;-63
2023/08/18 06:29:20;;;;;;;81.75;50.33;;;;;;;;;;5013582;28;20056;-64
2023/08/18 06:31:46;;;;;;;79.82;48.30;;;;;;;;;;5014857;28;20037;-64
2023/08/18 06:34:13;;;;;;;80.78;49.42;;;;;;;;;;5016788;28;20042;-64
2023/08/18 06:36:39;;;;;;;72.80;46.00;;;;;;;;;;5014157;28;20030;-66
2023/08/18 06:39:06;;;;;;;70.50;44.05;;;;;;;;;;5021204;28;20042;-63
2023/08/18 06:41:33;;;;;;;68.65;44.60;;;;;;;;;;5015624;28;20030;-66
2023/08/18 06:43:59;;;;;;;70.82;44.97;;;;;;;;;;5038665;28;20033;-65
2023/08/18 06:46:26;;;;;;;76.13;45.67;;;;;;;;;;5038342;28;20537;-61
2023/08/18 06:48:53;;;;;;;71.15;45.33;;;;;;;;;;5022827;28;20053;-66
2023/08/18 06:51:19;;;;;;;68.50;44.75;;;;;;;;;;5030546;28;20141;-64
2023/08/18 06:53:46;;;;;;;69.25;43.83;;;;;;;;;;5028960;28;20093;-64
2023/08/18 06:56:12;;;;;;;71.05;45.13;;;;;;;;;;5026098;28;20022;-68
2023/08/18 06:58:39;;;;;;;188.32;42.40;;;;;;;;;;5023123;28;20060;-63
2023/08/18 07:01:06;;;;;;;79.95;25.27;;;;;;;;;;5025935;28;20038;-64
2023/08/18 07:03:32;;;;;;;59.22;17.60;;;;;;;;;;5024612;28;20034;-66
2023/08/18 07:05:59;;;;;;;49.15;15.35;;;;;;;;;;5024284;28;20034;-64
2023/08/18 07:08:26;;;;;;;30.23;13.05;;;;;;;;;;5023000;28;20069;-62
2023/08/18 07:10:53;;;;;;;40.78;13.32;;;;;;;;;;5037596;28;20037;-65
2023/08/18 07:13:21;;;;;;;54.70;11.07;;;;;;;;;;5021740;28;20137;-63
2023/08/18 07:15:48;;;;;;;67.22;14.15;;;;;;;;;;5016469;28;20113;-63
2023/08/18 07:18:15;;;;;;;55.08;14.10;;;;;;;;;;5002596;28;20065;-63
2023/08/18 07:20:43;;;;;;;37.17;13.20;;;;;;;;;;4996799;28;20096;-66
2023/08/18 07:23:09;;;;;;;45.03;13.05;;;;;;;;;;4997347;28;20042;-64
2023/08/18 07:25:37;;;;;;;44.50;14.02;;;;;;;;;;4996226;28;20097;-65
2023/08/18 07:28:04;;;;;;;25.45;12.10;;;;;;;;;;4997029;28;20049;-62
2023/08/18 07:30:31;;;;;;;26.95;12.55;;;;;;;;;;5011844;28;20096;-63
2023/08/18 07:32:57;;;;;;;65.63;15.00;;;;;;;;;;4998269;28;20602;-64
2023/08/18 07:35:24;;;;;;;33.88;12.77;;;;;;;;;;4995168;28;20532;-64
2023/08/18 07:37:51;;;;;;;29.90;11.90;;;;;;;;;;5012168;28;20026;-64
2023/08/18 07:40:18;;;;;;;34.70;13.20;;;;;;;;;;5011598;28;20034;-65
2023/08/18 07:42:45;;;;;;;25.15;10.80;;;;;;;;;;5010261;28;20033;-64
2023/08/18 07:45:11;;;;;;;40.30;13.68;;;;;;;;;;4996180;28;20042;-64
2023/08/18 07:47:39;;;;;;;52.55;13.23;;;;;;;;;;4996849;28;20145;-64
2023/08/18 07:50:09;;;;;;;27.08;12.52;;;;;;;;;;4996598;28;20038;-62
2023/08/18 07:52:36;;;;;;;28.00;13.07;;;;;;;;;;4997734;28;20041;-64
2023/08/18 07:55:04;;;;;;;28.27;13.80;;;;;;;;;;5011374;28;20078;-64
2023/08/18 07:57:31;;;;;;;36.92;13.00;;;;;;;;;;4996213;28;20042;-63
2023/08/18 07:59:57;;;;;;;26.92;10.68;;;;;;;;;;4999137;28;20514;-64
2023/08/18 08:02:24;;;;;;;25.77;12.95;;;;;;;;;;5001411;28;20052;-64
2023/08/18 08:04:54;;;;;;;25.88;11.73;;;;;;;;;;4996456;28;20042;-63
2023/08/18 08:07:21;;;;;;;35.60;10.45;;;;;;;;;;4996482;28;20038;-62
2023/08/18 08:09:47;;;;;;;24.10;9.82;;;;;;;;;;4996071;28;20121;-63
2023/08/18 08:12:14;;;;;;;24.40;12.30;;;;;;;;;;5012425;28;20038;-63
2023/08/18 08:14:41;;;;;;;21.55;11.40;;;;;;;;;;4996387;28;20991;-67
2023/08/18 08:17:09;;;;;;;23.77;11.30;;;;;;;;;;4996752;28;20041;-61
2023/08/18 08:19:35;;;;;;;21.63;10.77;;;;;;;;;;4997681;28;20038;-63
2023/08/18 08:22:05;;;;;;;23.55;11.63;;;;;;;;;;4999008;28;20131;-64
2023/08/18 08:24:32;;;;;;;24.20;11.93;;;;;;;;;;4997167;28;20574;-61
2023/08/18 08:26:59;;;;;;;22.60;10.30;;;;;;;;;;4995447;28;20037;-63
2023/08/18 08:29:25;;;;;;;26.02;11.05;;;;;;;;;;4997403;28;20046;-63
2023/08/18 08:31:52;;;;;;;19.60;8.32;;;;;;;;;;4998587;28;20042;-61
2023/08/18 08:34:18;;;;;;;15.55;9.13;;;;;;;;;;4997404;28;20049;-60
2023/08/18 08:36:45;;;;;;;22.13;11.75;;;;;;;;;;5011399;28;20429;-63
2023/08/18 08:39:11;;;;;;;21.17;10.23;;;;;;;;;;4996575;28;20077;-63
2023/08/18 08:41:38;;;;;;;20.60;10.77;;;;;;;;;;4996367;28;20180;-63
2023/08/18 08:44:05;;;;;;;20.73;11.32;;;;;;;;;;4999435;28;20079;-63
2023/08/18 08:46:32;;;;;;;22.52;11.02;;;;;;;;;;4996751;28;20122;-62
2023/08/18 08:49:01;;;;;;;22.90;10.88;;;;;;;;;;4996747;28;20141;-63
2023/08/18 08:51:29;;;;;;;22.15;11.02;;;;;;;;;;4994800;28;20141;-61
2023/08/18 08:53:58;;;;;;;19.38;11.75;;;;;;;;;;4995973;28;20038;-63
2023/08/18 08:56:28;;;;;;;22.85;12.68;;;;;;;;;;4995323;28;20045;-63
2023/08/18 08:58:55;;;;;;;21.83;12.80;;;;;;;;;;5010008;28;20075;-64
2023/08/18 09:01:26;;;;;;;20.35;12.40;;;;;;;;;;4995238;28;20042;-62
2023/08/18 09:03:52;;;;;;;22.63;13.57;;;;;;;;;;4995418;28;20108;-62
2023/08/18 09:06:19;;;;;;;22.55;12.63;;;;;;;;;;4995199;28;20745;-60
2023/08/18 09:08:46;;;;;;;25.00;14.18;;;;;;;;;;4995286;28;20060;-65
2023/08/18 09:11:12;;;;;;;27.48;14.40;;;;;;;;;;4996414;28;20112;-65
2023/08/18 09:13:39;;;;;;;18.60;12.13;;;;;;;;;;4994529;28;20034;-64
2023/08/18 09:16:06;;;;;;;21.13;13.15;;;;;;;;;;4993850;28;20077;-63
2023/08/18 09:18:33;;;;;;;23.92;13.27;;;;;;;;;;5011154;28;20041;-63
2023/08/18 09:21:01;;;;;;;18.67;10.85;;;;;;;;;;4996540;28;20383;-62
2023/08/18 09:23:28;;;;;;;16.17;9.02;;;;;;;;;;4994018;28;20096;-62
2023/08/18 09:25:58;;;;;;;22.40;12.30;;;;;;;;;;5011587;28;20033;-64
2023/08/18 09:28:25;;;;;;;20.35;11.82;;;;;;;;;;4996266;28;20133;-61
2023/08/18 09:30:52;;;;;;;21.17;12.27;;;;;;;;;;4996473;28;20121;-64
2023/08/18 09:33:23;;;;;;;22.13;11.88;;;;;;;;;;4998783;28;20611;-66
2023/08/18 09:36:01;;;;;;;20.98;12.45;;;;;;;;;;4990316;28;20069;-67
2023/08/18 09:38:39;;;;;;;19.95;12.32;;;;;;;;;;5007885;28;20073;-64
2023/08/18 09:41:05;;;;;;;21.23;12.40;;;;;;;;;;5008633;28;20041;-64
2023/08/18 09:43:32;;;;;;;25.15;13.23;;;;;;;;;;4999508;28;20090;-63
2023/08/18 09:46:19;;;;;;;21.38;12.65;;;;;;;;;;4994642;28;20559;-61
2023/08/18 09:48:48;;;;;;;17.63;11.63;;;;;;;;;;4992965;28;20061;-63
2023/08/18 09:51:16;;;;;;;21.80;13.98;;;;;;;;;;4993124;28;20236;-62
2023/08/18 09:53:54;;;;;;;21.40;12.93;;;;;;;;;;4994027;28;20069;-62
2023/08/18 09:56:25;;;;;;;22.88;12.63;;;;;;;;;;4992627;28;20040;-63
2023/08/18 09:59:13;;;;;;;21.80;13.18;;;;;;;;;;4994300;28;20140;-62
2023/08/18 10:01:40;;;;;;;20.00;12.25;;;;;;;;;;4993204;28;21885;-62
2023/08/18 10:04:07;;;;;;;22.60;12.25;;;;;;;;;;4993434;28;20042;-62
2023/08/18 10:06:36;;;;;;;20.02;12.10;;;;;;;;;;4992355;28;20046;-63
2023/08/18 10:09:02;;;;;;;19.05;12.52;;;;;;;;;;4993298;28;20435;-63
2023/08/18 10:11:29;;;;;;;18.17;11.95;;;;;;;;;;4991740;28;20034;-63
2023/08/18 10:13:56;;;;;;;19.17;12.27;;;;;;;;;;4970147;28;20796;-65
2023/08/18 10:16:23;;;;;;;20.10;11.85;;;;;;;;;;4966941;28;20537;-65
2023/08/18 10:18:59;;;;;;;20.45;11.95;;;;;;;;;;4975529;28;20038;-63
2023/08/18 10:21:27;;;;;;;21.77;11.90;;;;;;;;;;4974992;28;20435;-64
2023/08/18 10:23:54;;;;;;;17.98;10.77;;;;;;;;;;4975796;28;20038;-62
2023/08/18 10:26:23;;;;;;;22.90;12.60;;;;;;;;;;4973877;28;20038;-62
2023/08/18 10:28:52;;;;;;;23.42;11.85;;;;;;;;;;4989436;28;20116;-64
2023/08/18 10:31:20;;;;;;;18.70;10.90;;;;;;;;;;4975276;28;20081;-62
2023/08/18 10:33:55;;;;;;;22.35;12.80;;;;;;;;;;4978852;28;20107;-63
2023/08/18 10:36:24;;;;;;;21.15;12.07;;;;;;;;;;5009072;28;20065;-62
2023/08/18 10:38:52;;;;;;;21.48;11.95;;;;;;;;;;4990491;28;20034;-63
2023/08/18 10:41:31;;;;;;;17.60;11.52;;;;;;;;;;5011033;28;20152;-63
2023/08/18 10:43:58;;;;;;;23.25;12.15;;;;;;;;;;4993967;28;20145;-63
2023/08/18 10:46:34;;;;;;;19.30;11.90;;;;;;;;;;4994346;28;20290;-63
2023/08/18 10:49:01;;;;;;;21.35;12.93;;;;;;;;;;5010703;28;20422;-65
2023/08/18 10:51:28;;;;;;;18.73;10.85;;;;;;;;;;4993898;28;20207;-61
2023/08/18 10:53:55;;;;;;;20.65;11.60;;;;;;;;;;5010016;28;20099;-63
2023/08/18 10:56:21;;;;;;;19.80;11.93;;;;;;;;;;4994113;28;20127;-63
2023/08/18 10:58:48;;;;;;;20.00;12.00;;;;;;;;;;4995332;28;20775;-62
2023/08/18 11:01:17;;;;;;;20.30;12.23;;;;;;;;;;4995759;28;20034;-63
2023/08/18 11:03:44;;;;;;;19.50;11.63;;;;;;;;;;4993797;28;20046;-63
2023/08/18 11:06:11;;;;;;;17.48;11.00;;;;;;;;;;4994473;28;20034;-62
2023/08/18 11:08:38;;;;;;;19.95;11.82;;;;;;;;;;4994185;28;20065;-63
2023/08/18 11:11:05;;;;;;;20.65;11.65;;;;;;;;;;4995152;28;20041;-62
2023/08/18 11:13:31;;;;;;;23.33;12.50;;;;;;;;;;5008425;28;20062;-61
2023/08/18 11:15:58;;;;;;;24.02;11.50;;;;;;;;;;4993758;28;20034;-60
2023/08/18 11:18:25;;;;;;;18.50;11.43;;;;;;;;;;4992695;28;20038;-58
2023/08/18 11:20:52;;;;;;;19.60;11.57;;;;;;;;;;4993363;28;20037;-64
2023/08/18 11:23:19;;;;;;;21.98;11.52;;;;;;;;;;4993962;28;20041;-62
2023/08/18 11:26:06;;;;;;;19.52;11.60;;;;;;;;;;5011704;28;20034;-63
2023/08/18 11:28:32;;;;;;;22.30;11.32;;;;;;;;;;5001700;28;20140;-59
2023/08/18 11:31:04;;;;;;;18.08;11.05;;;;;;;;;;4987683;28;20042;-57
2023/08/18 11:33:31;;;;;;;18.25;11.35;;;;;;;;;;5001306;28;20057;-58
2023/08/18 11:35:57;;;;;;;20.42;11.20;;;;;;;;;;5001860;28;20041;-59
2023/08/18 11:38:24;;;;;;;19.10;10.98;;;;;;;;;;5002472;28;20041;-58
2023/08/18 11:40:51;;;;;;;17.15;10.13;;;;;;;;;;5002121;28;20057;-58
2023/08/18 11:43:21;;;;;;;19.42;11.10;;;;;;;;;;5004563;28;20664;-61
2023/08/18 11:45:48;;;;;;;18.83;10.90;;;;;;;;;;5000865;28;20053;-63
2023/08/18 11:48:15;;;;;;;17.45;10.93;;;;;;;;;;5002710;28;20041;-61
2023/08/18 11:50:42;;;;;;;19.33;11.18;;;;;;;;;;5001456;28;20044;-61
2023/08/18 11:53:10;;;;;;;18.25;10.10;;;;;;;;;;5002648;28;20092;-59
2023/08/18 11:55:39;;;;;;;22.88;10.88;;;;;;;;;;4984159;28;20125;-59
2023/08/18 11:58:15;;;;;;;19.20;10.30;;;;;;;;;;5000658;28;20042;-60
2023/08/18 12:00:43;;;;;;;21.25;10.80;;;;;;;;;;5000923;28;20137;-57
2023/08/18 12:03:26;;;;;;;18.45;10.75;;;;;;;;;;5002075;28;20041;-56
2023/08/18 12:05:56;;;;;;;21.50;10.27;;;;;;;;;;4994660;28;20037;-60
2023/08/18 12:08:23;;;;;;;18.00;10.98;;;;;;;;;;5011065;28;20062;-62
2023/08/18 12:10:50;;;;;;;19.08;10.75;;;;;;;;;;4988005;28;20046;-62
2023/08/18 12:13:17;;;;;;;19.90;10.43;;;;;;;;;;4995259;28;20169;-62
2023/08/18 12:15:43;;;;;;;16.67;10.13;;;;;;;;;;4994351;28;20037;-64
2023/08/18 12:18:10;;;;;;;18.63;10.50;;;;;;;;;;4995023;28;20128;-62
2023/08/18 12:20:37;;;;;;;20.00;10.65;;;;;;;;;;4997023;28;20490;-65
2023/08/18 12:23:03;;;;;;;19.15;11.07;;;;;;;;;;4998644;28;20050;-61
2023/08/18 12:25:50;;;;;;;18.67;11.18;;;;;;;;;;5013048;28;20217;-63
2023/08/18 12:28:17;;;;;;;19.48;10.38;;;;;;;;;;5013604;28;20097;-63
2023/08/18 12:30:44;;;;;;;17.90;9.57;;;;;;;;;;5014861;28;20041;-64
2023/08/18 12:33:11;;;;;;;17.60;10.50;;;;;;;;;;5014891;28;20033;-63
2023/08/18 12:35:37;;;;;;;17.50;9.75;;;;;;;;;;5009839;28;20065;-59
2023/08/18 12:38:04;;;;;;;14.65;9.60;;;;;;;;;;4988898;28;20049;-61
2023/08/18 12:40:31;;;;;;;19.77;10.20;;;;;;;;;;4993069;28;20041;-59
2023/08/18 12:42:57;;;;;;;19.35;9.50;;;;;;;;;;5012495;28;20048;-59
2023/08/18 12:45:24;;;;;;;16.88;9.35;;;;;;;;;;5010482;28;20041;-63
2023/08/18 12:47:50;;;;;;;16.70;9.68;;;;;;;;;;5014423;28;20045;-59
2023/08/18 12:50:17;;;;;;;18.83;9.82;;;;;;;;;;4996011;28;20083;-60
2023/08/18 12:52:44;;;;;;;20.25;10.23;;;;;;;;;;5011002;28;20037;-63
2023/08/18 12:55:11;;;;;;;18.48;10.15;;;;;;;;;;5014469;28;20495;-61
2023/08/18 12:57:37;;;;;;;22.73;10.50;;;;;;;;;;4999712;28;20041;-61
2023/08/18 13:00:04;;;;;;;22.65;10.63;;;;;;;;;;5014235;28;20138;-63
2023/08/18 13:02:31;;;;;;;17.40;9.98;;;;;;;;;;5010562;28;20038;-62
2023/08/18 13:04:57;;;;;;;19.08;10.48;;;;;;;;;;4995849;28;20033;-61
2023/08/18 13:07:26;;;;;;;21.77;10.10;;;;;;;;;;4995267;28;20046;-58
2023/08/18 13:09:52;;;;;;;17.95;10.18;;;;;;;;;;4997028;28;20049;-59
2023/08/18 13:12:19;;;;;;;17.02;10.10;;;;;;;;;;4995676;28;20041;-59
2023/08/18 13:14:46;;;;;;;16.65;9.98;;;;;;;;;;4994984;28;20041;-63
2023/08/18 13:17:12;;;;;;;18.88;10.65;;;;;;;;;;5011755;28;20566;-60
2023/08/18 13:19:39;;;;;;;15.50;9.82;;;;;;;;;;4995447;28;20038;-58
2023/08/18 13:22:06;;;;;;;24.00;10.05;;;;;;;;;;5010443;28;20041;-61
2023/08/18 13:24:33;;;;;;;15.20;9.32;;;;;;;;;;4995473;28;21211;-58
2023/08/18 13:26:59;;;;;;;16.85;9.55;;;;;;;;;;4995331;28;20045;-58
2023/08/18 13:29:26;;;;;;;22.90;11.25;;;;;;;;;;4995928;28;20085;-61
2023/08/18 13:31:52;;;;;;;16.55;9.60;;;;;;;;;;4995996;28;20044;-58
2023/08/18 13:34:19;;;;;;;19.88;10.23;;;;;;;;;;5010100;28;20053;-58
2023/08/18 13:36:46;;;;;;;16.40;9.65;;;;;;;;;;4992653;28;20082;-65
2023/08/18 13:39:15;;;;;;;23.85;10.93;;;;;;;;;;5009534;28;20169;-62
2023/08/18 13:41:42;;;;;;;23.77;10.32;;;;;;;;;;4994185;28;20143;-63
2023/08/18 13:44:09;;;;;;;27.40;10.07;;;;;;;;;;4996439;28;20045;-61
2023/08/18 13:46:35;;;;;;;18.38;9.38;;;;;;;;;;4993986;28;20418;-61
2023/08/18 13:49:02;;;;;;;20.45;9.27;;;;;;;;;;4996931;28;20084;-61
2023/08/18 13:51:29;;;;;;;18.58;9.18;;;;;;;;;;4994728;28;20052;-62
2023/08/18 13:53:56;;;;;;;15.90;8.27;;;;;;;;;;4993188;28;20459;-61
2023/08/18 13:56:22;;;;;;;20.17;8.75;;;;;;;;;;4993109;28;20050;-62
2023/08/18 13:58:49;;;;;;;14.93;8.25;;;;;;;;;;5011086;28;20038;-61
2023/08/18 14:01:16;;;;;;;16.33;8.60;;;;;;;;;;4993747;28;20693;-61
2023/08/18 14:03:42;;;;;;;15.70;9.32;;;;;;;;;;4995193;28;20046;-61
2023/08/18 14:06:09;;;;;;;15.45;8.95;;;;;;;;;;4993831;28;20064;-61
2023/08/18 14:08:35;;;;;;;15.57;8.38;;;;;;;;;;5011511;28;20049;-67
2023/08/18 14:11:03;;;;;;;14.00;7.43;;;;;;;;;;5002302;28;20042;-62
2023/08/18 14:13:29;;;;;;;13.23;7.53;;;;;;;;;;5013966;28;20034;-62
2023/08/18 14:15:56;;;;;;;18.08;8.27;;;;;;;;;;5000437;28;20041;-60
2023/08/18 14:18:23;;;;;;;14.38;8.10;;;;;;;;;;5014717;28;21599;-62
2023/08/18 14:20:50;;;;;;;18.58;7.95;;;;;;;;;;4999542;28;20041;-61